createdAt,value
2018-04-11T00:02:16.984Z,76.6
2018-04-11T00:07:17.111Z,74.7
2018-04-11T00:12:16.808Z,74.3
2018-04-11T00:17:16.916Z,74.2
2018-04-11T00:22:17.013Z,76.3
2018-04-11T00:27:16.814Z,76
2018-04-11T00:32:17.689Z,76.4
2018-04-11T00:37:17.568Z,76.9
2018-04-11T00:42:29.832Z,79.6
2018-04-11T00:47:29.774Z,77.9
2018-04-11T00:52:29.574Z,77.2
2018-04-11T00:57:29.566Z,79.2
2018-04-11T01:02:32.936Z,79.2
2018-04-11T01:07:29.574Z,78.1
2018-04-11T01:12:29.765Z,78.4
2018-04-11T01:17:35.707Z,78.3
2018-04-11T01:22:35.413Z,78.4
2018-04-11T01:27:46.315Z,77.8
2018-04-11T01:32:46.061Z,78.1
2018-04-11T01:37:46.196Z,78.4
2018-04-11T01:42:46.045Z,79.2
2018-04-11T01:47:46.268Z,78.9
2018-04-11T01:52:46.086Z,79.1
2018-04-11T01:57:46.066Z,79.3
2018-04-11T02:02:46.268Z,80.1
2018-04-11T02:07:46.310Z,81.7
2018-04-11T02:12:46.399Z,80.2
2018-04-11T02:17:46.456Z,80.9
2018-04-11T02:22:46.398Z,80.5
2018-04-11T02:27:46.964Z,80.7
2018-04-11T02:32:46.887Z,79.6
2018-04-11T02:37:59.389Z,80.2
2018-04-11T02:42:59.360Z,80.4
2018-04-11T02:47:59.290Z,79.7
2018-04-11T02:52:59.135Z,79.7
2018-04-11T02:57:59.335Z,79.5
2018-04-11T03:02:59.125Z,79.8
2018-04-11T03:07:59.310Z,80.3
2018-04-11T03:12:59.326Z,80.1
2018-04-11T03:17:59.153Z,79.8
2018-04-11T03:22:59.166Z,80.3
2018-04-11T03:27:59.376Z,81.6
2018-04-11T03:32:59.375Z,81
2018-04-11T03:37:59.855Z,80.1
2018-04-11T03:42:59.582Z,79.7
2018-04-11T03:48:12.254Z,80.5
2018-04-11T03:53:12.214Z,80.7
2018-04-11T03:58:12.008Z,81.6
2018-04-11T04:03:11.984Z,80.3
2018-04-11T04:08:12.199Z,80.6
2018-04-11T04:13:11.996Z,80.7
2018-04-11T04:18:12.784Z,83.1
2018-04-11T04:23:13.325Z,83.4
2018-04-11T04:28:12.950Z,81.7
2018-04-11T04:33:26.732Z,81.1
2018-04-11T04:38:26.521Z,81.2
2018-04-11T04:43:26.455Z,81.2
2018-04-11T04:48:26.448Z,81.8
2018-04-11T04:53:26.657Z,81.8
2018-04-11T04:58:26.616Z,82.3
2018-04-11T05:03:26.557Z,82.6
2018-04-11T05:08:26.895Z,81.2
2018-04-11T05:13:28.177Z,81.2
2018-04-11T05:18:39.937Z,81.4
2018-04-11T05:23:39.843Z,80.9
2018-04-11T05:28:40.309Z,81.8
2018-04-11T05:33:39.837Z,81.9
2018-04-11T05:38:39.679Z,80.5
2018-04-11T05:43:39.683Z,80.6
2018-04-11T05:48:39.814Z,80.1
2018-04-11T05:53:40.090Z,79.8
2018-04-11T05:58:39.838Z,79
2018-04-11T06:03:39.904Z,78.8
2018-04-11T06:08:39.672Z,76.3
2018-04-11T06:13:39.890Z,76.2
2018-04-11T06:18:40.377Z,74.2
2018-04-11T06:23:40.230Z,73.2
2018-04-11T06:28:52.773Z,71.8
2018-04-11T06:33:52.511Z,71.7
2018-04-11T06:38:52.540Z,70.5
2018-04-11T06:43:52.491Z,67.5
2018-04-11T06:48:52.701Z,68.7
2018-04-11T06:53:52.789Z,68.4
2018-04-11T06:58:52.626Z,68.3
2018-04-11T07:03:53.404Z,67.7
2018-04-11T07:08:53.158Z,68
2018-04-11T07:14:05.794Z,67
2018-04-11T07:19:05.422Z,67.6
2018-04-11T07:24:05.244Z,66.4
2018-04-11T07:29:05.371Z,66.2
2018-04-11T07:34:05.403Z,66.4
2018-04-11T07:39:05.257Z,66.6
2018-04-11T07:44:05.209Z,66.3
2018-04-11T07:49:05.401Z,64.9
2018-04-11T07:54:05.252Z,66.6
2018-04-11T07:59:05.465Z,64.3
2018-04-11T08:04:05.226Z,63.7
2018-04-11T08:09:05.245Z,64
2018-04-11T08:14:05.264Z,63.6
2018-04-11T08:19:05.242Z,64
2018-04-11T08:24:05.431Z,60.6
2018-04-11T08:29:05.468Z,60.9
2018-04-11T08:34:05.261Z,60.5
2018-04-11T08:39:05.465Z,61.1
2018-04-11T08:44:05.458Z,60.4
2018-04-11T08:49:05.492Z,61
2018-04-11T08:54:05.409Z,61.1
2018-04-11T08:59:09.821Z,60.4
2018-04-11T09:04:09.920Z,61.4
2018-04-11T09:09:14.900Z,59
2018-04-11T09:14:14.747Z,58.5
2018-04-11T09:19:14.577Z,58.9
2018-04-11T09:24:14.749Z,59.8
2018-04-11T09:29:19.325Z,59.1
2018-04-11T09:34:19.058Z,59.9
2018-04-11T09:39:19.246Z,57.7
2018-04-11T09:44:19.270Z,57
2018-04-11T09:49:19.209Z,57.7
2018-04-11T09:54:27.616Z,58
2018-04-11T09:59:27.468Z,57.6
2018-04-11T10:04:27.506Z,57.6
2018-04-11T10:09:27.525Z,59.3
2018-04-11T10:14:27.528Z,57.7
2018-04-11T10:19:27.486Z,58.3
2018-04-11T10:24:27.348Z,57.5
2018-04-11T10:29:27.583Z,56.6
2018-04-11T10:34:27.350Z,56.9
2018-04-11T10:39:27.532Z,56.4
2018-04-11T10:44:27.580Z,56.7
2018-04-11T10:49:27.357Z,56.9
2018-04-11T10:54:27.370Z,56.8
2018-04-11T10:59:27.614Z,57.9
2018-04-11T11:04:27.390Z,57.1
2018-04-11T11:09:27.557Z,55
2018-04-11T11:14:27.593Z,55.7
2018-04-11T11:19:27.615Z,55
2018-04-11T11:24:27.584Z,54.5
2018-04-11T11:29:27.537Z,54.1
2018-04-11T11:34:27.609Z,54.5
2018-04-11T11:39:27.354Z,54.8
2018-04-11T11:44:27.659Z,53.9
2018-04-11T11:49:27.789Z,52
2018-04-11T11:54:27.516Z,52.4
2018-04-11T11:59:27.643Z,51.6
2018-04-11T12:04:27.971Z,52.4
2018-04-11T12:09:28.000Z,50.9
2018-04-11T12:14:28.096Z,52.7
2018-04-11T12:19:28.018Z,52.5
2018-04-11T12:24:28.152Z,51.5
2018-04-11T12:29:27.999Z,51.1
2018-04-11T12:34:28.071Z,51
2018-04-11T12:39:28.271Z,50.7
2018-04-11T12:44:28.073Z,50.6
2018-04-11T12:49:28.231Z,50.1
2018-04-11T12:54:28.256Z,49.5
2018-04-11T12:59:28.501Z,49.7
2018-04-11T13:04:28.107Z,49.3
2018-04-11T13:09:28.465Z,49.2
2018-04-11T13:14:28.386Z,49.6
2018-04-11T13:19:28.546Z,48.9
2018-04-11T13:24:28.370Z,49.4
2018-04-11T13:29:28.596Z,48.3
2018-04-11T13:34:28.346Z,47.3
2018-04-11T13:39:28.466Z,47.5
2018-04-11T13:44:28.352Z,47.3
2018-04-11T13:49:28.435Z,46.9
2018-04-11T13:54:28.411Z,47.2
2018-04-11T13:59:28.609Z,47.2
2018-04-11T14:04:28.381Z,45.8
2018-04-11T14:09:28.573Z,46.5
2018-04-11T14:14:28.604Z,46.3
2018-04-11T14:19:28.490Z,45.5
2018-04-11T14:24:28.398Z,45.3
2018-04-11T14:29:28.597Z,46.4
2018-04-11T14:34:28.777Z,46.7
2018-04-11T14:39:28.776Z,45.8
2018-04-11T14:44:28.729Z,44.3
2018-04-11T14:49:30.471Z,45.3
2018-04-11T14:54:29.621Z,44.3
2018-04-11T14:59:28.859Z,44.6
2018-04-11T15:04:28.614Z,45.3
2018-04-11T15:09:28.571Z,45.2
2018-04-11T15:14:28.821Z,44.4
2018-04-11T15:19:28.841Z,43.9
2018-04-11T15:24:28.587Z,44.5
2018-04-11T15:29:28.606Z,44.6
2018-04-11T15:34:28.595Z,45.1
2018-04-11T15:39:30.138Z,45.6
2018-04-11T15:44:28.613Z,45.6
2018-04-11T15:49:28.627Z,45.9
2018-04-11T15:54:28.629Z,46.1
2018-04-11T15:59:28.604Z,46.5
2018-04-11T16:04:28.785Z,46.4
2018-04-11T16:09:37.104Z,46.9
2018-04-11T16:14:36.978Z,47.1
2018-04-11T16:19:36.791Z,46
2018-04-11T16:24:36.752Z,46.4
2018-04-11T16:29:36.725Z,46.8
2018-04-11T16:34:37.231Z,46.8
2018-04-11T16:39:36.755Z,47.2
2018-04-11T16:44:37.262Z,46.9
2018-04-11T16:49:36.888Z,48
2018-04-11T16:54:49.567Z,48
2018-04-11T16:59:49.205Z,48
2018-04-11T17:04:49.405Z,48.4
2018-04-11T17:09:49.322Z,48.8
2018-04-11T17:14:49.287Z,49.3
2018-04-11T17:19:49.297Z,49
2018-04-11T17:24:49.308Z,48.1
2018-04-11T17:29:49.525Z,49
2018-04-11T17:34:49.323Z,49.8
2018-04-11T17:39:49.332Z,49.8
2018-04-11T17:44:49.289Z,50.7
2018-04-11T17:49:49.475Z,50.3
2018-04-11T17:54:49.982Z,49.7
2018-04-11T17:59:49.919Z,49.9
2018-04-11T18:05:02.381Z,50
2018-04-11T18:10:02.316Z,50.1
2018-04-11T18:15:02.186Z,50.9
2018-04-11T18:20:02.172Z,51.1
2018-04-11T18:25:02.146Z,50.8
2018-04-11T18:30:02.252Z,53.3
2018-04-11T18:35:02.404Z,53.5
2018-04-11T18:40:04.218Z,54.2
2018-04-11T18:45:04.412Z,52.6
2018-04-11T18:50:14.683Z,52.2
2018-04-11T18:55:14.320Z,55.2
2018-04-11T19:00:14.471Z,55.1
2018-04-11T19:05:14.491Z,55
2018-04-11T19:10:14.555Z,53.8
2018-04-11T19:15:14.425Z,51.9
2018-04-11T19:20:14.438Z,52.5
2018-04-11T19:25:14.580Z,52.2
2018-04-11T19:30:14.531Z,49.1
2018-04-11T19:35:14.566Z,50.3
2018-04-11T19:40:14.801Z,48.2
2018-04-11T19:45:14.592Z,46.1
2018-04-11T19:50:14.976Z,47.3
2018-04-11T19:55:14.665Z,45.4
2018-04-11T20:00:27.128Z,45.7
2018-04-11T20:05:26.865Z,46.6
2018-04-11T20:10:26.987Z,46.4
2018-04-11T20:15:26.837Z,47.2
2018-04-11T20:20:26.822Z,45.5
2018-04-11T20:25:27.029Z,44.9
2018-04-11T20:30:27.053Z,45.1
2018-04-11T20:35:26.861Z,45.8
2018-04-11T20:40:27.057Z,45.8
2018-04-11T20:45:38.975Z,46.8
2018-04-11T20:50:38.703Z,46.5
2018-04-11T20:55:38.920Z,46.6
2018-04-11T21:00:38.722Z,46.8
2018-04-11T21:05:39.007Z,46.6
2018-04-11T21:10:38.879Z,47.7
2018-04-11T21:15:38.991Z,47.4
2018-04-11T21:20:38.764Z,48.3
2018-04-11T21:25:39.215Z,47.2
2018-04-11T21:30:51.092Z,47.9
2018-04-11T21:35:50.954Z,48.2
2018-04-11T21:40:50.741Z,47.7
2018-04-11T21:45:50.770Z,47.8
2018-04-11T21:50:50.749Z,47.6
2018-04-11T21:55:50.793Z,47.4
2018-04-11T22:00:50.759Z,47.9
2018-04-11T22:05:57.566Z,48.4
2018-04-11T22:10:57.415Z,48.2
2018-04-11T22:16:07.586Z,48.2
2018-04-11T22:21:07.421Z,49
2018-04-11T22:26:07.381Z,49.1
2018-04-11T22:31:07.476Z,49.6
2018-04-11T22:36:07.309Z,49.5
2018-04-11T22:41:07.537Z,50.4
2018-04-11T22:46:07.446Z,51.4
2018-04-11T22:51:07.809Z,51.5
2018-04-11T22:56:07.518Z,51.7
2018-04-11T23:01:20.184Z,52.2
2018-04-11T23:06:19.916Z,52.4
2018-04-11T23:11:19.919Z,53.1
2018-04-11T23:16:20.037Z,53.1
2018-04-11T23:21:20.050Z,53.6
2018-04-11T23:26:19.926Z,54.3
2018-04-11T23:31:20.045Z,54.1
2018-04-11T23:36:23.608Z,53.6
2018-04-11T23:41:23.316Z,53.5
2018-04-11T23:46:35.753Z,54.1
2018-04-11T23:51:35.709Z,53.7
2018-04-11T23:56:35.515Z,53.9
